In Rescue
 
Open Full Screen Window  High Contrast Mode
Wind Gusting 00 knots
08
May 25, 2022 9:56 PM CDT
Weather Information
Wind Direction
  050 °
Wind Speed
  08 kt (9 mph)
Wind Gust
  00 kt (0 mph)
Altimeter
29.88 in
Visibility
10 SM
Temperature
10° C
50° F
Dewpoint
08° C
46° F
Humidity
88%
1hr Rain Fall
00.00 in.
24hr Rain Fall
00.02 in.
Sky Condition
Missing
VFR

METAR KPQN 260256Z AUTO 05008KT 10SM 10/08 A2988 RMK AO2

FAA Disclaimer: The data displayed is for advisory purposes only and is not to be used for flight planning or operations.
Missing Cloud Data